sensor_id;sensor_type;location;lat;lon;timestamp;P1;durP1;ratioP1;P2;durP2;ratioP2
28988;SDS011;16089;59.952;10.818;2023-04-05T00:00:56;2.08;;;0.70;;
28988;SDS011;16089;59.952;10.818;2023-04-05T00:03:22;3.47;;;1.08;;
28988;SDS011;16089;59.952;10.818;2023-04-05T00:05:49;1.70;;;0.60;;
28988;SDS011;16089;59.952;10.818;2023-04-05T00:08:18;1.73;;;0.70;;
28988;SDS011;16089;59.952;10.818;2023-04-05T00:10:52;2.00;;;0.70;;
28988;SDS011;16089;59.952;10.818;2023-04-05T00:13:18;2.60;;;0.60;;
28988;SDS011;16089;59.952;10.818;2023-04-05T00:15:45;2.28;;;0.73;;
28988;SDS011;16089;59.952;10.818;2023-04-05T00:18:11;2.33;;;0.80;;
28988;SDS011;16089;59.952;10.818;2023-04-05T00:20:45;2.38;;;0.60;;
28988;SDS011;16089;59.952;10.818;2023-04-05T00:23:12;2.10;;;0.63;;
28988;SDS011;16089;59.952;10.818;2023-04-05T00:25:38;2.30;;;0.60;;
28988;SDS011;16089;59.952;10.818;2023-04-05T00:28:06;2.78;;;0.63;;
28988;SDS011;16089;59.952;10.818;2023-04-05T00:30:33;2.15;;;0.60;;
28988;SDS011;16089;59.952;10.818;2023-04-05T00:32:59;1.30;;;0.70;;
28988;SDS011;16089;59.952;10.818;2023-04-05T00:35:25;3.13;;;0.70;;
28988;SDS011;16089;59.952;10.818;2023-04-05T00:37:52;8.13;;;0.90;;
28988;SDS011;16089;59.952;10.818;2023-04-05T00:40:18;2.20;;;0.60;;
28988;SDS011;16089;59.952;10.818;2023-04-05T00:42:45;1.48;;;0.60;;
28988;SDS011;16089;59.952;10.818;2023-04-05T00:45:13;4.32;;;0.85;;
28988;SDS011;16089;59.952;10.818;2023-04-05T00:47:39;1.60;;;0.60;;
28988;SDS011;16089;59.952;10.818;2023-04-05T00:50:06;2.50;;;0.60;;
28988;SDS011;16089;59.952;10.818;2023-04-05T00:52:33;3.47;;;0.88;;
28988;SDS011;16089;59.952;10.818;2023-04-05T00:55:01;2.13;;;0.70;;
28988;SDS011;16089;59.952;10.818;2023-04-05T00:57:30;2.83;;;0.77;;
28988;SDS011;16089;59.952;10.818;2023-04-05T00:59:57;1.98;;;0.80;;
28988;SDS011;16089;59.952;10.818;2023-04-05T01:02:26;1.98;;;0.70;;
28988;SDS011;16089;59.952;10.818;2023-04-05T01:04:54;2.72;;;0.70;;
28988;SDS011;16089;59.952;10.818;2023-04-05T01:07:27;2.60;;;0.70;;
28988;SDS011;16089;59.952;10.818;2023-04-05T01:09:57;2.58;;;0.70;;
28988;SDS011;16089;59.952;10.818;2023-04-05T01:12:25;1.80;;;0.60;;
28988;SDS011;16089;59.952;10.818;2023-04-05T01:14:52;4.07;;;0.73;;
28988;SDS011;16089;59.952;10.818;2023-04-05T01:17:20;2.55;;;0.80;;
28988;SDS011;16089;59.952;10.818;2023-04-05T01:19:48;4.55;;;0.82;;
28988;SDS011;16089;59.952;10.818;2023-04-05T01:27:59;2.00;;;0.80;;
28988;SDS011;16089;59.952;10.818;2023-04-05T01:30:31;2.10;;;0.90;;
28988;SDS011;16089;59.952;10.818;2023-04-05T01:33:02;3.97;;;1.15;;
28988;SDS011;16089;59.952;10.818;2023-04-05T01:35:32;4.00;;;0.90;;
28988;SDS011;16089;59.952;10.818;2023-04-05T01:38:03;3.40;;;0.68;;
28988;SDS011;16089;59.952;10.818;2023-04-05T01:40:30;1.90;;;0.90;;
28988;SDS011;16089;59.952;10.818;2023-04-05T01:42:59;2.25;;;0.80;;
28988;SDS011;16089;59.952;10.818;2023-04-05T01:45:26;3.95;;;0.88;;
28988;SDS011;16089;59.952;10.818;2023-04-05T01:47:53;2.20;;;0.82;;
28988;SDS011;16089;59.952;10.818;2023-04-05T01:50:20;2.13;;;0.75;;
28988;SDS011;16089;59.952;10.818;2023-04-05T01:52:46;1.17;;;0.50;;
28988;SDS011;16089;59.952;10.818;2023-04-05T01:55:12;1.58;;;0.50;;
28988;SDS011;16089;59.952;10.818;2023-04-05T01:57:39;1.85;;;0.60;;
28988;SDS011;16089;59.952;10.818;2023-04-05T02:00:05;1.80;;;0.70;;
28988;SDS011;16089;59.952;10.818;2023-04-05T02:02:32;2.78;;;0.60;;
28988;SDS011;16089;59.952;10.818;2023-04-05T02:05:00;3.15;;;0.98;;
28988;SDS011;16089;59.952;10.818;2023-04-05T02:07:26;2.83;;;0.70;;
28988;SDS011;16089;59.952;10.818;2023-04-05T02:09:52;1.42;;;0.60;;
28988;SDS011;16089;59.952;10.818;2023-04-05T02:12:19;1.38;;;0.60;;
28988;SDS011;16089;59.952;10.818;2023-04-05T02:14:46;1.40;;;0.60;;
28988;SDS011;16089;59.952;10.818;2023-04-05T02:17:13;2.00;;;0.60;;
28988;SDS011;16089;59.952;10.818;2023-04-05T02:19:39;5.10;;;0.73;;
28988;SDS011;16089;59.952;10.818;2023-04-05T02:22:07;3.53;;;0.80;;
28988;SDS011;16089;59.952;10.818;2023-04-05T02:24:33;2.70;;;0.70;;
28988;SDS011;16089;59.952;10.818;2023-04-05T02:27:00;1.40;;;0.50;;
28988;SDS011;16089;59.952;10.818;2023-04-05T02:29:26;3.38;;;0.80;;
28988;SDS011;16089;59.952;10.818;2023-04-05T02:31:53;1.42;;;0.60;;
28988;SDS011;16089;59.952;10.818;2023-04-05T02:34:19;4.55;;;0.82;;
28988;SDS011;16089;59.952;10.818;2023-04-05T02:36:47;4.38;;;0.90;;
28988;SDS011;16089;59.952;10.818;2023-04-05T02:39:14;2.58;;;0.68;;
28988;SDS011;16089;59.952;10.818;2023-04-05T02:41:41;1.80;;;0.60;;
28988;SDS011;16089;59.952;10.818;2023-04-05T02:44:07;3.38;;;0.80;;
28988;SDS011;16089;59.952;10.818;2023-04-05T02:46:34;2.25;;;0.82;;
28988;SDS011;16089;59.952;10.818;2023-04-05T02:49:00;4.00;;;0.77;;
28988;SDS011;16089;59.952;10.818;2023-04-05T02:51:26;3.88;;;0.80;;
28988;SDS011;16089;59.952;10.818;2023-04-05T02:53:53;1.83;;;0.80;;
28988;SDS011;16089;59.952;10.818;2023-04-05T02:56:20;3.05;;;0.80;;
28988;SDS011;16089;59.952;10.818;2023-04-05T02:58:47;3.85;;;0.80;;
28988;SDS011;16089;59.952;10.818;2023-04-05T03:01:13;4.00;;;1.35;;
28988;SDS011;16089;59.952;10.818;2023-04-05T03:03:41;1.98;;;0.60;;
28988;SDS011;16089;59.952;10.818;2023-04-05T03:06:08;1.80;;;0.63;;
28988;SDS011;16089;59.952;10.818;2023-04-05T03:08:35;3.88;;;0.80;;
28988;SDS011;16089;59.952;10.818;2023-04-05T03:11:02;1.65;;;0.70;;
28988;SDS011;16089;59.952;10.818;2023-04-05T03:13:30;1.95;;;0.80;;
28988;SDS011;16089;59.952;10.818;2023-04-05T03:15:56;2.92;;;0.75;;
28988;SDS011;16089;59.952;10.818;2023-04-05T03:18:23;3.42;;;0.88;;
28988;SDS011;16089;59.952;10.818;2023-04-05T03:20:50;1.88;;;0.60;;
28988;SDS011;16089;59.952;10.818;2023-04-05T03:23:20;2.63;;;0.82;;
28988;SDS011;16089;59.952;10.818;2023-04-05T03:25:52;1.60;;;0.70;;
28988;SDS011;16089;59.952;10.818;2023-04-05T03:28:18;2.20;;;0.75;;
28988;SDS011;16089;59.952;10.818;2023-04-05T03:30:46;2.72;;;0.68;;
28988;SDS011;16089;59.952;10.818;2023-04-05T03:33:12;2.53;;;0.90;;
28988;SDS011;16089;59.952;10.818;2023-04-05T03:35:39;1.73;;;0.65;;
28988;SDS011;16089;59.952;10.818;2023-04-05T03:38:05;2.00;;;0.60;;
28988;SDS011;16089;59.952;10.818;2023-04-05T03:40:32;2.60;;;0.63;;
28988;SDS011;16089;59.952;10.818;2023-04-05T03:42:58;2.08;;;0.70;;
28988;SDS011;16089;59.952;10.818;2023-04-05T03:45:25;11.18;;;0.80;;
28988;SDS011;16089;59.952;10.818;2023-04-05T03:47:52;4.18;;;0.80;;
28988;SDS011;16089;59.952;10.818;2023-04-05T03:50:19;2.22;;;0.70;;
28988;SDS011;16089;59.952;10.818;2023-04-05T03:52:45;4.20;;;0.88;;
28988;SDS011;16089;59.952;10.818;2023-04-05T03:55:12;3.88;;;1.00;;
28988;SDS011;16089;59.952;10.818;2023-04-05T03:57:41;5.07;;;0.70;;
28988;SDS011;16089;59.952;10.818;2023-04-05T04:00:07;2.95;;;1.33;;
28988;SDS011;16089;59.952;10.818;2023-04-05T04:02:39;3.63;;;0.77;;
28988;SDS011;16089;59.952;10.818;2023-04-05T04:05:07;1.55;;;0.70;;
28988;SDS011;16089;59.952;10.818;2023-04-05T04:07:33;1.67;;;0.77;;
28988;SDS011;16089;59.952;10.818;2023-04-05T04:10:00;2.47;;;0.68;;
28988;SDS011;16089;59.952;10.818;2023-04-05T04:12:26;3.80;;;0.90;;
28988;SDS011;16089;59.952;10.818;2023-04-05T04:14:53;4.47;;;0.90;;
28988;SDS011;16089;59.952;10.818;2023-04-05T04:17:25;4.57;;;1.20;;
28988;SDS011;16089;59.952;10.818;2023-04-05T04:19:52;3.50;;;0.75;;
28988;SDS011;16089;59.952;10.818;2023-04-05T04:22:19;2.35;;;0.80;;
28988;SDS011;16089;59.952;10.818;2023-04-05T04:24:46;1.83;;;0.73;;
28988;SDS011;16089;59.952;10.818;2023-04-05T04:27:14;2.95;;;0.80;;
28988;SDS011;16089;59.952;10.818;2023-04-05T04:29:41;4.85;;;0.70;;
28988;SDS011;16089;59.952;10.818;2023-04-05T04:32:11;12.80;;;1.23;;
28988;SDS011;16089;59.952;10.818;2023-04-05T04:34:37;4.60;;;0.90;;
28988;SDS011;16089;59.952;10.818;2023-04-05T04:37:09;3.03;;;0.90;;
28988;SDS011;16089;59.952;10.818;2023-04-05T04:39:44;2.17;;;0.60;;
28988;SDS011;16089;59.952;10.818;2023-04-05T04:42:11;4.97;;;0.90;;
28988;SDS011;16089;59.952;10.818;2023-04-05T04:44:37;3.28;;;0.70;;
28988;SDS011;16089;59.952;10.818;2023-04-05T04:47:06;3.78;;;1.00;;
28988;SDS011;16089;59.952;10.818;2023-04-05T04:49:37;26.80;;;2.22;;
28988;SDS011;16089;59.952;10.818;2023-04-05T04:52:06;6.90;;;1.15;;
28988;SDS011;16089;59.952;10.818;2023-04-05T04:54:33;1.48;;;0.70;;
28988;SDS011;16089;59.952;10.818;2023-04-05T04:57:01;6.07;;;1.30;;
28988;SDS011;16089;59.952;10.818;2023-04-05T04:59:28;13.23;;;1.27;;
28988;SDS011;16089;59.952;10.818;2023-04-05T05:01:54;26.55;;;1.95;;
28988;SDS011;16089;59.952;10.818;2023-04-05T05:04:21;9.40;;;0.90;;
28988;SDS011;16089;59.952;10.818;2023-04-05T05:06:48;5.75;;;1.15;;
28988;SDS011;16089;59.952;10.818;2023-04-05T05:09:15;2.10;;;0.85;;
28988;SDS011;16089;59.952;10.818;2023-04-05T05:11:41;4.35;;;0.70;;
28988;SDS011;16089;59.952;10.818;2023-04-05T05:14:09;2.50;;;0.55;;
28988;SDS011;16089;59.952;10.818;2023-04-05T05:16:35;5.07;;;1.17;;
28988;SDS011;16089;59.952;10.818;2023-04-05T05:19:02;1.92;;;0.60;;
28988;SDS011;16089;59.952;10.818;2023-04-05T05:21:28;3.67;;;0.73;;
28988;SDS011;16089;59.952;10.818;2023-04-05T05:23:55;1.88;;;0.70;;
28988;SDS011;16089;59.952;10.818;2023-04-05T05:26:21;2.42;;;0.80;;
28988;SDS011;16089;59.952;10.818;2023-04-05T05:28:47;3.85;;;0.70;;
28988;SDS011;16089;59.952;10.818;2023-04-05T05:31:15;2.38;;;0.70;;
28988;SDS011;16089;59.952;10.818;2023-04-05T05:33:43;6.88;;;0.80;;
28988;SDS011;16089;59.952;10.818;2023-04-05T05:36:13;9.20;;;0.90;;
28988;SDS011;16089;59.952;10.818;2023-04-05T05:38:39;9.27;;;0.85;;
28988;SDS011;16089;59.952;10.818;2023-04-05T05:41:07;8.82;;;0.85;;
28988;SDS011;16089;59.952;10.818;2023-04-05T05:43:33;5.10;;;1.15;;
28988;SDS011;16089;59.952;10.818;2023-04-05T05:46:01;3.28;;;1.15;;
28988;SDS011;16089;59.952;10.818;2023-04-05T05:48:29;4.43;;;0.80;;
28988;SDS011;16089;59.952;10.818;2023-04-05T05:50:55;4.50;;;1.00;;
28988;SDS011;16089;59.952;10.818;2023-04-05T05:53:25;3.03;;;1.00;;
28988;SDS011;16089;59.952;10.818;2023-04-05T05:55:52;7.45;;;0.98;;
28988;SDS011;16089;59.952;10.818;2023-04-05T05:58:18;5.78;;;0.90;;
28988;SDS011;16089;59.952;10.818;2023-04-05T06:00:44;5.07;;;0.65;;
28988;SDS011;16089;59.952;10.818;2023-04-05T06:03:11;1.63;;;0.60;;
28988;SDS011;16089;59.952;10.818;2023-04-05T06:05:38;1.90;;;0.68;;
28988;SDS011;16089;59.952;10.818;2023-04-05T06:08:05;2.10;;;0.80;;
28988;SDS011;16089;59.952;10.818;2023-04-05T06:10:34;7.13;;;0.98;;
28988;SDS011;16089;59.952;10.818;2023-04-05T06:13:01;2.50;;;0.70;;
28988;SDS011;16089;59.952;10.818;2023-04-05T06:15:28;2.20;;;0.82;;
28988;SDS011;16089;59.952;10.818;2023-04-05T06:17:55;3.30;;;0.60;;
28988;SDS011;16089;59.952;10.818;2023-04-05T06:20:22;4.95;;;0.80;;
28988;SDS011;16089;59.952;10.818;2023-04-05T06:22:49;5.53;;;0.70;;
28988;SDS011;16089;59.952;10.818;2023-04-05T06:25:16;7.90;;;0.80;;
28988;SDS011;16089;59.952;10.818;2023-04-05T06:27:42;19.13;;;1.27;;
28988;SDS011;16089;59.952;10.818;2023-04-05T06:30:09;9.07;;;0.82;;
28988;SDS011;16089;59.952;10.818;2023-04-05T06:32:35;3.35;;;0.70;;
28988;SDS011;16089;59.952;10.818;2023-04-05T06:35:02;3.65;;;0.70;;
28988;SDS011;16089;59.952;10.818;2023-04-05T06:37:28;1.85;;;0.98;;
28988;SDS011;16089;59.952;10.818;2023-04-05T06:39:56;1.42;;;0.68;;
28988;SDS011;16089;59.952;10.818;2023-04-05T06:42:23;1.48;;;0.70;;
28988;SDS011;16089;59.952;10.818;2023-04-05T06:44:49;6.85;;;0.90;;
28988;SDS011;16089;59.952;10.818;2023-04-05T06:47:15;5.38;;;0.98;;
28988;SDS011;16089;59.952;10.818;2023-04-05T06:49:42;14.73;;;1.38;;
28988;SDS011;16089;59.952;10.818;2023-04-05T06:52:08;12.88;;;0.93;;
28988;SDS011;16089;59.952;10.818;2023-04-05T06:54:36;5.20;;;1.15;;
28988;SDS011;16089;59.952;10.818;2023-04-05T06:57:04;10.40;;;1.00;;
28988;SDS011;16089;59.952;10.818;2023-04-05T06:59:30;11.25;;;1.40;;
28988;SDS011;16089;59.952;10.818;2023-04-05T07:01:56;11.77;;;1.20;;
28988;SDS011;16089;59.952;10.818;2023-04-05T07:04:23;17.67;;;1.13;;
28988;SDS011;16089;59.952;10.818;2023-04-05T07:06:50;4.47;;;0.80;;
28988;SDS011;16089;59.952;10.818;2023-04-05T07:09:17;10.80;;;1.10;;
28988;SDS011;16089;59.952;10.818;2023-04-05T07:11:44;4.57;;;1.02;;
28988;SDS011;16089;59.952;10.818;2023-04-05T07:14:12;4.82;;;1.73;;
28988;SDS011;16089;59.952;10.818;2023-04-05T07:16:38;14.07;;;1.98;;
28988;SDS011;16089;59.952;10.818;2023-04-05T07:19:05;6.55;;;1.40;;
28988;SDS011;16089;59.952;10.818;2023-04-05T07:21:31;15.85;;;1.85;;
28988;SDS011;16089;59.952;10.818;2023-04-05T07:23:57;9.35;;;2.38;;
28988;SDS011;16089;59.952;10.818;2023-04-05T07:26:26;11.38;;;2.75;;
28988;SDS011;16089;59.952;10.818;2023-04-05T07:28:53;23.23;;;8.88;;
28988;SDS011;16089;59.952;10.818;2023-04-05T07:31:20;10.20;;;5.07;;
28988;SDS011;16089;59.952;10.818;2023-04-05T07:33:47;10.77;;;3.83;;
28988;SDS011;16089;59.952;10.818;2023-04-05T07:36:13;13.15;;;3.05;;
28988;SDS011;16089;59.952;10.818;2023-04-05T07:38:39;8.05;;;2.20;;
28988;SDS011;16089;59.952;10.818;2023-04-05T07:41:06;10.98;;;1.98;;
28988;SDS011;16089;59.952;10.818;2023-04-05T07:43:32;15.80;;;2.38;;
28988;SDS011;16089;59.952;10.818;2023-04-05T07:46:02;7.43;;;1.92;;
28988;SDS011;16089;59.952;10.818;2023-04-05T07:48:30;7.78;;;1.98;;
28988;SDS011;16089;59.952;10.818;2023-04-05T07:51:01;7.05;;;2.00;;
28988;SDS011;16089;59.952;10.818;2023-04-05T07:53:28;7.50;;;1.33;;
28988;SDS011;16089;59.952;10.818;2023-04-05T07:55:54;5.65;;;1.55;;
28988;SDS011;16089;59.952;10.818;2023-04-05T07:58:21;10.73;;;1.67;;
28988;SDS011;16089;59.952;10.818;2023-04-05T08:00:48;14.25;;;2.70;;
28988;SDS011;16089;59.952;10.818;2023-04-05T08:03:14;13.40;;;3.60;;
28988;SDS011;16089;59.952;10.818;2023-04-05T08:05:42;19.60;;;5.32;;
28988;SDS011;16089;59.952;10.818;2023-04-05T08:08:08;21.58;;;5.18;;
28988;SDS011;16089;59.952;10.818;2023-04-05T08:10:37;10.00;;;2.70;;
28988;SDS011;16089;59.952;10.818;2023-04-05T08:13:03;8.13;;;2.00;;
28988;SDS011;16089;59.952;10.818;2023-04-05T08:15:31;11.48;;;2.33;;
28988;SDS011;16089;59.952;10.818;2023-04-05T08:17:57;14.05;;;1.67;;
28988;SDS011;16089;59.952;10.818;2023-04-05T08:20:24;5.28;;;1.15;;
28988;SDS011;16089;59.952;10.818;2023-04-05T08:22:52;11.60;;;1.42;;
28988;SDS011;16089;59.952;10.818;2023-04-05T08:25:18;6.90;;;1.17;;
28988;SDS011;16089;59.952;10.818;2023-04-05T08:27:44;6.88;;;1.50;;
28988;SDS011;16089;59.952;10.818;2023-04-05T08:30:11;5.57;;;1.23;;
28988;SDS011;16089;59.952;10.818;2023-04-05T08:32:37;8.95;;;1.45;;
28988;SDS011;16089;59.952;10.818;2023-04-05T08:35:03;9.82;;;1.20;;
28988;SDS011;16089;59.952;10.818;2023-04-05T08:37:32;4.43;;;1.10;;
28988;SDS011;16089;59.952;10.818;2023-04-05T08:40:00;8.38;;;1.25;;
28988;SDS011;16089;59.952;10.818;2023-04-05T08:42:28;3.35;;;0.95;;
28988;SDS011;16089;59.952;10.818;2023-04-05T08:44:55;9.45;;;0.90;;
28988;SDS011;16089;59.952;10.818;2023-04-05T08:47:22;40.67;;;1.73;;
28988;SDS011;16089;59.952;10.818;2023-04-05T08:49:49;6.35;;;1.00;;
28988;SDS011;16089;59.952;10.818;2023-04-05T08:52:15;5.85;;;0.98;;
28988;SDS011;16089;59.952;10.818;2023-04-05T08:54:41;7.43;;;0.90;;
28988;SDS011;16089;59.952;10.818;2023-04-05T08:57:09;3.90;;;1.00;;
28988;SDS011;16089;59.952;10.818;2023-04-05T08:59:36;6.75;;;1.17;;
28988;SDS011;16089;59.952;10.818;2023-04-05T09:02:03;7.32;;;1.00;;
28988;SDS011;16089;59.952;10.818;2023-04-05T09:04:31;8.75;;;1.45;;
28988;SDS011;16089;59.952;10.818;2023-04-05T09:07:02;7.63;;;1.58;;
28988;SDS011;16089;59.952;10.818;2023-04-05T09:09:31;7.45;;;1.50;;
28988;SDS011;16089;59.952;10.818;2023-04-05T09:12:06;8.40;;;3.38;;
28988;SDS011;16089;59.952;10.818;2023-04-05T09:14:34;7.65;;;2.50;;
28988;SDS011;16089;59.952;10.818;2023-04-05T09:17:01;3.03;;;1.00;;
28988;SDS011;16089;59.952;10.818;2023-04-05T09:19:28;3.38;;;0.80;;
28988;SDS011;16089;59.952;10.818;2023-04-05T09:21:57;8.15;;;1.13;;
28988;SDS011;16089;59.952;10.818;2023-04-05T09:24:31;2.05;;;0.85;;
28988;SDS011;16089;59.952;10.818;2023-04-05T09:27:08;5.22;;;0.73;;
28988;SDS011;16089;59.952;10.818;2023-04-05T09:29:37;2.78;;;0.80;;
28988;SDS011;16089;59.952;10.818;2023-04-05T09:32:03;7.32;;;0.88;;
28988;SDS011;16089;59.952;10.818;2023-04-05T09:34:30;5.63;;;0.77;;
28988;SDS011;16089;59.952;10.818;2023-04-05T09:36:58;7.10;;;1.17;;
28988;SDS011;16089;59.952;10.818;2023-04-05T09:39:27;5.65;;;0.90;;
28988;SDS011;16089;59.952;10.818;2023-04-05T09:42:02;6.85;;;1.02;;
28988;SDS011;16089;59.952;10.818;2023-04-05T09:44:32;4.63;;;0.82;;
28988;SDS011;16089;59.952;10.818;2023-04-05T09:47:18;4.05;;;0.90;;
28988;SDS011;16089;59.952;10.818;2023-04-05T09:49:44;6.18;;;1.00;;
28988;SDS011;16089;59.952;10.818;2023-04-05T09:52:18;4.78;;;0.80;;
28988;SDS011;16089;59.952;10.818;2023-04-05T09:54:44;6.38;;;0.77;;
28988;SDS011;16089;59.952;10.818;2023-04-05T09:57:11;4.90;;;1.88;;
28988;SDS011;16089;59.952;10.818;2023-04-05T09:59:37;6.75;;;1.60;;
28988;SDS011;16089;59.952;10.818;2023-04-05T10:02:04;5.63;;;1.08;;
28988;SDS011;16089;59.952;10.818;2023-04-05T10:04:38;2.75;;;1.10;;
28988;SDS011;16089;59.952;10.818;2023-04-05T10:07:05;4.05;;;1.05;;
28988;SDS011;16089;59.952;10.818;2023-04-05T10:09:32;5.63;;;0.85;;
28988;SDS011;16089;59.952;10.818;2023-04-05T10:11:58;13.68;;;1.10;;
28988;SDS011;16089;59.952;10.818;2023-04-05T10:14:25;5.82;;;1.27;;
28988;SDS011;16089;59.952;10.818;2023-04-05T10:16:52;8.25;;;0.98;;
28988;SDS011;16089;59.952;10.818;2023-04-05T10:19:22;12.57;;;1.33;;
28988;SDS011;16089;59.952;10.818;2023-04-05T10:21:53;4.80;;;0.75;;
28988;SDS011;16089;59.952;10.818;2023-04-05T10:24:22;3.90;;;1.00;;
28988;SDS011;16089;59.952;10.818;2023-04-05T10:26:58;4.28;;;1.00;;
28988;SDS011;16089;59.952;10.818;2023-04-05T10:29:32;3.90;;;0.82;;
28988;SDS011;16089;59.952;10.818;2023-04-05T10:32:02;8.75;;;1.10;;
28988;SDS011;16089;59.952;10.818;2023-04-05T10:34:30;6.75;;;1.00;;
28988;SDS011;16089;59.952;10.818;2023-04-05T10:37:01;4.28;;;1.23;;
28988;SDS011;16089;59.952;10.818;2023-04-05T10:39:28;4.05;;;1.00;;
28988;SDS011;16089;59.952;10.818;2023-04-05T10:41:58;3.90;;;1.35;;
28988;SDS011;16089;59.952;10.818;2023-04-05T10:44:25;4.38;;;0.90;;
28988;SDS011;16089;59.952;10.818;2023-04-05T10:46:51;3.90;;;0.93;;
28988;SDS011;16089;59.952;10.818;2023-04-05T10:49:19;6.45;;;0.90;;
28988;SDS011;16089;59.952;10.818;2023-04-05T10:51:47;6.90;;;1.10;;
28988;SDS011;16089;59.952;10.818;2023-04-05T10:54:14;7.85;;;1.20;;
28988;SDS011;16089;59.952;10.818;2023-04-05T10:56:42;4.43;;;0.85;;
28988;SDS011;16089;59.952;10.818;2023-04-05T10:59:09;7.88;;;1.23;;
28988;SDS011;16089;59.952;10.818;2023-04-05T11:01:37;3.83;;;0.77;;
28988;SDS011;16089;59.952;10.818;2023-04-05T11:04:13;6.88;;;0.85;;
28988;SDS011;16089;59.952;10.818;2023-04-05T11:06:40;4.15;;;0.95;;
28988;SDS011;16089;59.952;10.818;2023-04-05T11:09:11;5.93;;;1.05;;
28988;SDS011;16089;59.952;10.818;2023-04-05T11:11:41;5.75;;;1.10;;
28988;SDS011;16089;59.952;10.818;2023-04-05T11:14:18;9.40;;;1.10;;
28988;SDS011;16089;59.952;10.818;2023-04-05T11:16:45;3.30;;;0.85;;
28988;SDS011;16089;59.952;10.818;2023-04-05T11:19:11;2.28;;;0.77;;
28988;SDS011;16089;59.952;10.818;2023-04-05T11:21:38;2.88;;;0.75;;
28988;SDS011;16089;59.952;10.818;2023-04-05T11:24:05;6.03;;;1.00;;
28988;SDS011;16089;59.952;10.818;2023-04-05T11:29:15;4.00;;;0.90;;
28988;SDS011;16089;59.952;10.818;2023-04-05T11:31:55;3.10;;;0.77;;
28988;SDS011;16089;59.952;10.818;2023-04-05T11:34:22;5.93;;;0.90;;
28988;SDS011;16089;59.952;10.818;2023-04-05T11:36:49;7.32;;;1.20;;
28988;SDS011;16089;59.952;10.818;2023-04-05T11:39:22;6.18;;;0.90;;
28988;SDS011;16089;59.952;10.818;2023-04-05T11:41:52;9.65;;;3.63;;
28988;SDS011;16089;59.952;10.818;2023-04-05T11:44:20;29.92;;;10.05;;
28988;SDS011;16089;59.952;10.818;2023-04-05T11:46:47;6.10;;;1.52;;
28988;SDS011;16089;59.952;10.818;2023-04-05T11:49:13;4.22;;;0.98;;
28988;SDS011;16089;59.952;10.818;2023-04-05T11:51:40;6.20;;;1.33;;
28988;SDS011;16089;59.952;10.818;2023-04-05T11:54:06;5.40;;;0.60;;
28988;SDS011;16089;59.952;10.818;2023-04-05T11:56:33;3.17;;;0.80;;
28988;SDS011;16089;59.952;10.818;2023-04-05T11:58:59;5.30;;;0.85;;
28988;SDS011;16089;59.952;10.818;2023-04-05T12:01:27;5.15;;;0.60;;
28988;SDS011;16089;59.952;10.818;2023-04-05T12:03:54;3.25;;;0.70;;
28988;SDS011;16089;59.952;10.818;2023-04-05T12:06:21;4.13;;;0.50;;
28988;SDS011;16089;59.952;10.818;2023-04-05T12:08:47;2.80;;;0.50;;
28988;SDS011;16089;59.952;10.818;2023-04-05T12:11:15;3.13;;;0.60;;
28988;SDS011;16089;59.952;10.818;2023-04-05T12:13:41;5.32;;;0.50;;
28988;SDS011;16089;59.952;10.818;2023-04-05T12:16:08;4.90;;;0.60;;
28988;SDS011;16089;59.952;10.818;2023-04-05T12:18:35;4.75;;;0.70;;
28988;SDS011;16089;59.952;10.818;2023-04-05T12:21:02;2.80;;;0.50;;
28988;SDS011;16089;59.952;10.818;2023-04-05T12:23:29;4.10;;;0.60;;
28988;SDS011;16089;59.952;10.818;2023-04-05T12:25:56;1.60;;;0.50;;
28988;SDS011;16089;59.952;10.818;2023-04-05T12:28:23;13.48;;;0.73;;
28988;SDS011;16089;59.952;10.818;2023-04-05T12:30:49;4.68;;;0.50;;
28988;SDS011;16089;59.952;10.818;2023-04-05T12:33:24;1.88;;;0.28;;
28988;SDS011;16089;59.952;10.818;2023-04-05T12:35:52;0.95;;;0.38;;
28988;SDS011;16089;59.952;10.818;2023-04-05T12:38:19;3.88;;;0.40;;
28988;SDS011;16089;59.952;10.818;2023-04-05T12:40:45;1.25;;;0.30;;
28988;SDS011;16089;59.952;10.818;2023-04-05T12:43:11;0.82;;;0.35;;
28988;SDS011;16089;59.952;10.818;2023-04-05T12:45:43;3.10;;;0.47;;
28988;SDS011;16089;59.952;10.818;2023-04-05T12:48:11;0.90;;;0.30;;
28988;SDS011;16089;59.952;10.818;2023-04-05T12:50:41;2.22;;;0.30;;
28988;SDS011;16089;59.952;10.818;2023-04-05T12:53:13;5.68;;;0.55;;
28988;SDS011;16089;59.952;10.818;2023-04-05T12:55:42;9.60;;;0.82;;
28988;SDS011;16089;59.952;10.818;2023-04-05T12:58:09;3.50;;;0.63;;
28988;SDS011;16089;59.952;10.818;2023-04-05T13:00:37;0.98;;;0.35;;
28988;SDS011;16089;59.952;10.818;2023-04-05T13:03:03;3.08;;;0.65;;
28988;SDS011;16089;59.952;10.818;2023-04-05T13:05:30;6.68;;;0.63;;
28988;SDS011;16089;59.952;10.818;2023-04-05T13:07:57;7.15;;;0.60;;
28988;SDS011;16089;59.952;10.818;2023-04-05T13:10:25;4.90;;;0.50;;
28988;SDS011;16089;59.952;10.818;2023-04-05T13:12:51;4.13;;;0.50;;
28988;SDS011;16089;59.952;10.818;2023-04-05T13:15:17;11.93;;;0.60;;
28988;SDS011;16089;59.952;10.818;2023-04-05T13:17:44;1.40;;;0.38;;
28988;SDS011;16089;59.952;10.818;2023-04-05T13:20:13;1.30;;;0.43;;
28988;SDS011;16089;59.952;10.818;2023-04-05T13:22:40;1.92;;;0.40;;
28988;SDS011;16089;59.952;10.818;2023-04-05T13:25:07;7.03;;;0.60;;
28988;SDS011;16089;59.952;10.818;2023-04-05T13:27:35;4.78;;;0.47;;
28988;SDS011;16089;59.952;10.818;2023-04-05T13:30:01;0.75;;;0.20;;
28988;SDS011;16089;59.952;10.818;2023-04-05T13:32:27;2.65;;;0.47;;
28988;SDS011;16089;59.952;10.818;2023-04-05T13:34:54;2.03;;;0.50;;
28988;SDS011;16089;59.952;10.818;2023-04-05T13:37:20;4.72;;;0.63;;
28988;SDS011;16089;59.952;10.818;2023-04-05T13:39:47;2.22;;;0.50;;
28988;SDS011;16089;59.952;10.818;2023-04-05T13:42:13;1.15;;;0.32;;
28988;SDS011;16089;59.952;10.818;2023-04-05T13:44:41;2.70;;;0.38;;
28988;SDS011;16089;59.952;10.818;2023-04-05T13:47:08;8.48;;;0.60;;
28988;SDS011;16089;59.952;10.818;2023-04-05T13:49:34;3.95;;;0.30;;
28988;SDS011;16089;59.952;10.818;2023-04-05T13:52:01;3.75;;;0.60;;
28988;SDS011;16089;59.952;10.818;2023-04-05T13:54:27;3.60;;;0.50;;
28988;SDS011;16089;59.952;10.818;2023-04-05T13:56:53;9.55;;;0.52;;
28988;SDS011;16089;59.952;10.818;2023-04-05T13:59:21;28.80;;;1.00;;
28988;SDS011;16089;59.952;10.818;2023-04-05T14:01:48;1.17;;;0.30;;
28988;SDS011;16089;59.952;10.818;2023-04-05T14:04:15;0.88;;;0.30;;
28988;SDS011;16089;59.952;10.818;2023-04-05T14:06:41;1.67;;;0.32;;
28988;SDS011;16089;59.952;10.818;2023-04-05T14:09:09;2.75;;;0.43;;
28988;SDS011;16089;59.952;10.818;2023-04-05T14:11:35;32.45;;;1.85;;
28988;SDS011;16089;59.952;10.818;2023-04-05T14:14:03;3.35;;;0.60;;
28988;SDS011;16089;59.952;10.818;2023-04-05T14:16:29;3.30;;;0.40;;
28988;SDS011;16089;59.952;10.818;2023-04-05T14:18:57;1.73;;;0.40;;
28988;SDS011;16089;59.952;10.818;2023-04-05T14:21:23;3.33;;;0.38;;
28988;SDS011;16089;59.952;10.818;2023-04-05T14:23:50;7.30;;;0.57;;
28988;SDS011;16089;59.952;10.818;2023-04-05T14:26:20;16.95;;;1.20;;
28988;SDS011;16089;59.952;10.818;2023-04-05T14:28:47;2.33;;;0.50;;
28988;SDS011;16089;59.952;10.818;2023-04-05T14:31:13;4.95;;;0.50;;
28988;SDS011;16089;59.952;10.818;2023-04-05T14:33:39;2.78;;;0.30;;
28988;SDS011;16089;59.952;10.818;2023-04-05T14:36:07;1.40;;;0.30;;
28988;SDS011;16089;59.952;10.818;2023-04-05T14:38:34;5.15;;;0.50;;
28988;SDS011;16089;59.952;10.818;2023-04-05T14:41:00;0.95;;;0.20;;
28988;SDS011;16089;59.952;10.818;2023-04-05T14:43:28;1.35;;;0.32;;